createdAt,value
2019-04-09T00:02:10.612Z,13.68
2019-04-09T00:04:40.291Z,13.68
2019-04-09T00:07:08.832Z,13.64
2019-04-09T00:09:38.389Z,13.63
2019-04-09T00:12:08.119Z,13.61
2019-04-09T00:14:37.698Z,13.62
2019-04-09T00:17:07.364Z,13.59
2019-04-09T00:19:36.897Z,13.56
2019-04-09T00:22:06.457Z,13.51
2019-04-09T00:24:36.922Z,13.44
2019-04-09T00:27:06.814Z,13.36
2019-04-09T00:29:36.417Z,13.23
2019-04-09T00:32:05.995Z,13.18
2019-04-09T00:34:35.866Z,13.12
2019-04-09T00:37:05.503Z,13.07
2019-04-09T00:39:35.103Z,12.97
2019-04-09T00:42:04.822Z,12.90
2019-04-09T00:44:34.851Z,12.78
2019-04-09T00:47:04.628Z,12.73
2019-04-09T00:49:34.205Z,12.71
2019-04-09T00:52:04.078Z,12.70
2019-04-09T00:54:33.886Z,12.64
2019-04-09T00:57:08.069Z,12.66
2019-04-09T00:59:34.884Z,12.63
2019-04-09T01:02:04.739Z,12.57
2019-04-09T01:04:34.415Z,12.58
2019-04-09T01:07:04.098Z,12.53
2019-04-09T01:09:34.917Z,12.49
2019-04-09T01:12:04.566Z,12.47
2019-04-09T01:14:34.314Z,12.49
2019-04-09T01:17:04.960Z,12.47
2019-04-09T01:19:34.613Z,12.42
2019-04-09T01:22:04.306Z,12.42
2019-04-09T01:24:38.954Z,12.41
2019-04-09T01:27:16.260Z,12.39
2019-04-09T01:29:56.823Z,12.33
2019-04-09T01:32:42.639Z,12.33
2019-04-09T01:35:35.267Z,12.37
2019-04-09T01:38:36.425Z,12.35
2019-04-09T01:41:27.607Z,12.28
2019-04-09T01:44:05.403Z,12.28
2019-04-09T01:46:41.560Z,12.23
2019-04-09T01:49:48.290Z,12.24
2019-04-09T01:52:39.447Z,12.20
2019-04-09T01:55:25.260Z,12.25
2019-04-09T01:58:06.369Z,12.27
2019-04-09T02:00:42.684Z,12.28
2019-04-09T02:03:34.183Z,12.32
2019-04-09T02:06:23.338Z,12.32
2019-04-09T02:09:02.931Z,12.33
2019-04-09T02:11:51.347Z,12.32
2019-04-09T02:14:38.577Z,12.36
2019-04-09T02:17:22.165Z,12.33
2019-04-09T02:20:04.671Z,12.28
2019-04-09T02:22:55.785Z,12.22
2019-04-09T02:25:34.007Z,12.18
2019-04-09T02:28:25.242Z,12.21
2019-04-09T02:31:29.026Z,12.21
2019-04-09T02:34:08.747Z,12.23
2019-04-09T02:36:56.986Z,12.22
2019-04-09T02:39:55.226Z,12.24
2019-04-09T02:42:46.388Z,12.23
2019-04-09T02:45:28.833Z,12.17
2019-04-09T02:48:26.114Z,12.16
2019-04-09T02:51:11.701Z,12.18
2019-04-09T02:53:58.884Z,12.17
2019-04-09T02:56:47.301Z,12.17
2019-04-09T02:59:44.937Z,12.17
2019-04-09T03:02:39.292Z,12.15
2019-04-09T03:05:36.820Z,12.13
2019-04-09T03:08:41.613Z,12.16
2019-04-09T03:11:26.680Z,12.16
2019-04-09T03:14:17.833Z,12.18
2019-04-09T03:17:01.480Z,12.20
2019-04-09T03:19:55.844Z,12.23
2019-04-09T03:22:39.931Z,12.25
2019-04-09T03:25:21.916Z,12.29
2019-04-09T03:28:13.435Z,12.32
2019-04-09T03:30:53.146Z,12.33
2019-04-09T03:33:41.459Z,12.32
2019-04-09T03:36:29.474Z,12.35
2019-04-09T03:39:17.757Z,12.37
2019-04-09T03:42:06.389Z,12.33
2019-04-09T03:45:06.962Z,12.31
2019-04-09T03:47:50.867Z,12.33
2019-04-09T03:50:41.275Z,12.33
2019-04-09T03:53:20.729Z,12.35
2019-04-09T03:56:10.003Z,12.28
2019-04-09T03:58:55.984Z,12.27
2019-04-09T04:01:49.051Z,12.29
2019-04-09T04:04:36.265Z,12.26
2019-04-09T04:07:23.752Z,12.26
2019-04-09T04:10:11.280Z,12.27
2019-04-09T04:12:55.809Z,12.29
2019-04-09T04:15:43.198Z,12.32
2019-04-09T04:18:50.386Z,12.29
2019-04-09T04:21:50.920Z,12.38
2019-04-09T04:24:38.783Z,12.44
2019-04-09T04:27:30.361Z,12.43
2019-04-09T04:30:24.765Z,12.41
2019-04-09T04:33:04.728Z,12.42
2019-04-09T04:35:53.300Z,12.46
2019-04-09T04:38:41.640Z,12.51
2019-04-09T04:41:34.312Z,12.57
2019-04-09T04:44:29.008Z,12.59
2019-04-09T04:47:17.450Z,12.53
2019-04-09T04:50:09.867Z,12.57
2019-04-09T04:52:54.656Z,12.54
2019-04-09T04:56:08.403Z,12.54
2019-04-09T04:59:01.202Z,12.57
2019-04-09T05:02:00.410Z,12.62
2019-04-09T05:04:52.919Z,12.66
2019-04-09T05:07:49.364Z,12.74
2019-04-09T05:10:51.439Z,12.76
2019-04-09T05:13:35.283Z,12.77
2019-04-09T05:16:30.591Z,12.81
2019-04-09T05:19:18.008Z,12.80
2019-04-09T05:22:06.386Z,12.74
2019-04-09T05:24:52.726Z,12.74
2019-04-09T05:27:44.575Z,12.80
2019-04-09T05:30:37.146Z,12.83
2019-04-09T05:33:40.748Z,12.87
2019-04-09T05:36:38.670Z,12.90
2019-04-09T05:39:26.246Z,12.91
2019-04-09T05:42:11.962Z,12.97
2019-04-09T05:44:51.624Z,13.00
2019-04-09T05:47:40.937Z,12.97
2019-04-09T05:50:19.732Z,13.07
2019-04-09T05:53:17.800Z,13.13
2019-04-09T05:56:06.250Z,13.17
2019-04-09T05:59:11.204Z,13.20
2019-04-09T06:02:05.990Z,13.21
2019-04-09T06:05:03.265Z,13.28
2019-04-09T06:07:55.615Z,13.35
2019-04-09T06:10:26.052Z,13.38
2019-04-09T06:12:55.634Z,13.41
2019-04-09T06:15:25.368Z,13.44
2019-04-09T06:17:54.974Z,13.52
2019-04-09T06:20:25.446Z,13.59
2019-04-09T06:22:55.310Z,13.61
2019-04-09T06:25:25.805Z,13.57
2019-04-09T06:27:55.590Z,13.64
2019-04-09T06:30:25.622Z,13.68
2019-04-09T06:33:20.136Z,13.76
2019-04-09T06:36:08.478Z,13.74
2019-04-09T06:38:50.377Z,13.69
2019-04-09T06:41:54.218Z,13.67
2019-04-09T06:44:30.680Z,13.65
2019-04-09T06:47:37.267Z,13.70
2019-04-09T06:50:25.779Z,13.66
2019-04-09T06:53:11.344Z,13.61
2019-04-09T06:56:09.423Z,13.56
2019-04-09T07:19:10.459Z,14.16
2019-04-09T07:22:04.835Z,14.36
2019-04-09T07:24:56.348Z,14.51
2019-04-09T07:27:43.476Z,14.51
2019-04-09T07:30:25.491Z,14.46
2019-04-09T07:33:17.849Z,14.42
2019-04-09T07:36:04.125Z,14.33
2019-04-09T07:38:54.512Z,14.43
2019-04-09T07:41:37.853Z,14.21
2019-04-09T07:44:23.183Z,14.05
2019-04-09T07:47:03.276Z,14.04
2019-04-09T07:49:45.242Z,14.09
2019-04-09T07:52:34.565Z,14.00
2019-04-09T07:55:10.004Z,13.89
2019-04-09T07:57:49.258Z,13.84
2019-04-09T08:00:36.986Z,13.83
2019-04-09T08:03:24.283Z,13.88
2019-04-09T08:06:18.387Z,13.83
2019-04-09T08:09:07.509Z,13.71
2019-04-09T08:11:58.867Z,13.71
2019-04-09T08:14:46.106Z,13.73
2019-04-09T08:17:50.084Z,13.75
2019-04-09T08:20:46.109Z,13.81
2019-04-09T08:23:33.395Z,13.82
2019-04-09T08:26:14.727Z,13.78
2019-04-09T08:28:52.172Z,13.63
2019-04-09T08:31:38.429Z,13.40
2019-04-09T08:34:29.998Z,13.25
2019-04-09T08:37:16.940Z,13.30
2019-04-09T08:40:08.951Z,13.78
2019-04-09T08:42:49.590Z,13.82
2019-04-09T08:45:53.949Z,14.25
2019-04-09T08:48:43.822Z,14.34
2019-04-09T08:51:45.358Z,14.27
2019-04-09T08:54:33.144Z,14.22
2019-04-09T08:57:15.213Z,14.27
2019-04-09T09:00:11.389Z,14.37
2019-04-09T09:02:51.766Z,14.53
2019-04-09T09:05:52.812Z,14.46
2019-04-09T09:08:35.380Z,14.24
2019-04-09T09:11:35.330Z,14.07
2019-04-09T09:14:16.523Z,14.01
2019-04-09T09:16:57.251Z,13.94
2019-04-09T09:19:49.905Z,13.97
2019-04-09T09:22:48.040Z,13.81
2019-04-09T09:25:31.020Z,13.72
2019-04-09T09:28:16.857Z,13.68
2019-04-09T09:31:13.316Z,13.65
2019-04-09T09:33:59.009Z,13.66
2019-04-09T09:36:50.257Z,13.78
2019-04-09T09:39:39.742Z,13.93
2019-04-09T09:42:19.260Z,14.12
2019-04-09T09:44:58.514Z,14.29
2019-04-09T09:47:47.833Z,14.43
2019-04-09T09:50:39.281Z,14.53
2019-04-09T09:53:29.769Z,14.76
2019-04-09T09:56:13.037Z,15.18
2019-04-09T09:59:00.880Z,15.47
2019-04-09T10:01:53.805Z,16.02
2019-04-09T10:04:29.036Z,16.24
2019-04-09T10:07:35.462Z,16.32
2019-04-09T10:10:09.397Z,16.26
2019-04-09T10:13:09.765Z,16.49
2019-04-09T10:15:54.968Z,16.54
2019-04-09T10:18:58.996Z,16.56
2019-04-09T10:21:47.919Z,16.29
2019-04-09T10:24:39.929Z,16.08
2019-04-09T10:27:27.121Z,15.80
2019-04-09T10:30:14.127Z,15.59
2019-04-09T10:32:58.596Z,15.41
2019-04-09T10:35:46.763Z,15.25
2019-04-09T10:38:54.377Z,15.19
2019-04-09T10:41:46.356Z,15.03
2019-04-09T10:44:30.991Z,14.91
2019-04-09T10:47:21.959Z,14.86
2019-04-09T10:50:15.878Z,14.79
2019-04-09T10:53:04.876Z,14.72
2019-04-09T10:55:56.364Z,14.77
2019-04-09T10:58:54.035Z,14.95
2019-04-09T11:01:54.425Z,15.07
2019-04-09T11:04:47.868Z,15.14
2019-04-09T11:07:36.394Z,15.31
2019-04-09T11:10:28.312Z,15.36
2019-04-09T11:13:13.451Z,15.42
2019-04-09T11:16:12.933Z,15.51
2019-04-09T11:19:07.738Z,15.46
2019-04-09T11:21:46.367Z,15.39
2019-04-09T11:24:39.919Z,15.45
2019-04-09T11:27:26.720Z,15.51
2019-04-09T11:30:34.174Z,15.28
2019-04-09T11:33:26.972Z,15.20
2019-04-09T11:36:10.663Z,15.18
2019-04-09T11:38:54.265Z,15.17
2019-04-09T11:41:41.621Z,15.18
2019-04-09T11:44:27.093Z,15.18
2019-04-09T11:47:14.950Z,14.64
2019-04-09T11:50:03.652Z,15.38
2019-04-09T11:52:48.081Z,15.54
2019-04-09T11:55:31.550Z,15.36
2019-04-09T11:58:38.388Z,15.44
2019-04-09T12:01:32.665Z,15.55
2019-04-09T12:04:27.690Z,15.42
2019-04-09T12:07:06.124Z,15.29
2019-04-09T12:09:54.564Z,15.17
2019-04-09T12:12:49.868Z,15.08
2019-04-09T12:15:47.255Z,15.04
2019-04-09T12:18:35.877Z,15.00
2019-04-09T12:21:24.831Z,14.94
2019-04-09T12:24:16.188Z,14.87
2019-04-09T12:26:55.343Z,14.88
2019-04-09T12:29:44.713Z,14.79
2019-04-09T12:32:46.064Z,14.81
2019-04-09T12:35:29.266Z,14.85
2019-04-09T12:38:17.947Z,14.86
2019-04-09T12:41:05.626Z,14.88
2019-04-09T12:44:01.699Z,14.83
2019-04-09T12:46:47.140Z,14.88
2019-04-09T12:49:34.062Z,14.85
2019-04-09T12:52:31.540Z,14.90
2019-04-09T12:55:19.200Z,15.09
2019-04-09T12:58:06.393Z,15.20
2019-04-09T13:00:58.454Z,15.17
2019-04-09T13:03:55.924Z,15.05
2019-04-09T13:07:00.056Z,14.94
2019-04-09T13:09:57.158Z,14.97
2019-04-09T13:13:01.172Z,14.99
2019-04-09T13:15:44.388Z,14.89
2019-04-09T13:18:32.759Z,14.83
2019-04-09T13:21:20.386Z,14.79
2019-04-09T13:24:13.433Z,14.71
2019-04-09T13:26:52.290Z,14.58
2019-04-09T13:29:36.743Z,14.53
2019-04-09T13:32:15.129Z,14.51
2019-04-09T13:35:16.387Z,14.64
2019-04-09T13:37:52.709Z,14.74
2019-04-09T13:40:47.443Z,14.77
2019-04-09T13:43:41.806Z,14.83
2019-04-09T13:46:32.992Z,14.98
2019-04-09T13:49:23.009Z,14.99
2019-04-09T13:52:13.037Z,15.03
2019-04-09T13:54:43.843Z,15.11
2019-04-09T13:57:13.697Z,15.14
2019-04-09T13:59:43.228Z,15.21
2019-04-09T14:02:12.999Z,15.36
2019-04-09T14:04:47.355Z,15.46
2019-04-09T14:07:17.388Z,15.50
2019-04-09T14:09:47.118Z,15.49
2019-04-09T14:12:16.916Z,15.38
2019-04-09T14:14:47.023Z,15.31
2019-04-09T14:17:17.542Z,15.26
2019-04-09T14:19:54.628Z,15.26
2019-04-09T14:22:18.772Z,15.30
2019-04-09T14:24:49.266Z,15.34
2019-04-09T14:27:29.715Z,15.26
2019-04-09T14:29:50.092Z,15.15
2019-04-09T14:32:19.688Z,14.98
2019-04-09T14:34:49.376Z,14.87
2019-04-09T14:37:19.046Z,14.86
2019-04-09T14:39:49.062Z,14.83
2019-04-09T14:42:18.774Z,14.83
2019-04-09T14:44:48.452Z,14.84
2019-04-09T14:47:18.090Z,14.85
2019-04-09T14:49:47.653Z,14.91
2019-04-09T14:52:18.133Z,14.95
2019-04-09T14:54:48.135Z,14.99
2019-04-09T14:57:18.645Z,15.01
2019-04-09T14:59:48.608Z,14.93
2019-04-09T15:02:18.122Z,14.96
2019-04-09T15:04:48.193Z,14.94
2019-04-09T15:07:17.819Z,14.91
2019-04-09T15:09:47.712Z,14.88
2019-04-09T15:12:17.457Z,14.77
2019-04-09T15:14:47.145Z,14.70
2019-04-09T15:17:16.681Z,14.65
2019-04-09T15:19:46.363Z,14.66
2019-04-09T15:22:18.388Z,14.55
2019-04-09T15:24:48.931Z,14.52
2019-04-09T15:27:19.569Z,14.44
2019-04-09T15:29:50.036Z,14.38
2019-04-09T15:32:22.606Z,14.36
2019-04-09T15:34:51.463Z,14.38
2019-04-09T15:37:21.217Z,14.41
2019-04-09T15:39:50.812Z,14.40
2019-04-09T15:42:21.475Z,14.43
2019-04-09T15:44:51.004Z,14.35
2019-04-09T15:47:21.108Z,14.36
2019-04-09T15:49:50.674Z,14.25
2019-04-09T15:52:20.259Z,14.11
2019-04-09T15:54:49.874Z,14.03
2019-04-09T15:57:19.570Z,13.96
2019-04-09T15:59:49.188Z,13.92
2019-04-09T16:02:18.742Z,13.90
2019-04-09T16:04:48.439Z,13.84
2019-04-09T16:07:18.073Z,13.82
2019-04-09T16:09:47.807Z,13.77
2019-04-09T16:12:18.633Z,13.73
2019-04-09T16:14:48.388Z,13.67
2019-04-09T16:17:19.250Z,13.59
2019-04-09T16:19:51.369Z,13.51
2019-04-09T16:22:20.490Z,13.41
2019-04-09T16:24:50.921Z,13.40
2019-04-09T16:27:20.574Z,13.36
2019-04-09T16:29:50.682Z,13.32
2019-04-09T16:32:21.576Z,13.24
2019-04-09T16:34:52.335Z,13.19
2019-04-09T16:37:25.688Z,13.12
2019-04-09T16:39:57.121Z,13.09
2019-04-09T16:42:35.636Z,12.98
2019-04-09T16:45:04.759Z,12.97
2019-04-09T16:47:32.003Z,12.98
2019-04-09T16:50:01.744Z,12.94
2019-04-09T16:52:31.966Z,12.90
2019-04-09T16:55:03.116Z,12.90
2019-04-09T16:57:33.184Z,12.90
2019-04-09T17:00:03.352Z,12.87
2019-04-09T17:02:34.210Z,12.85
2019-04-09T17:07:59.344Z,12.80
2019-04-09T17:10:30.030Z,12.74
2019-04-09T17:13:00.332Z,12.72
2019-04-09T17:15:29.993Z,12.72
2019-04-09T17:17:59.865Z,12.74
2019-04-09T17:20:30.934Z,12.73
2019-04-09T17:23:01.143Z,12.68
2019-04-09T17:25:31.132Z,12.65
2019-04-09T17:28:00.817Z,12.63
2019-04-09T17:30:30.379Z,12.62
2019-04-09T17:33:00.734Z,12.62
2019-04-09T17:35:31.168Z,12.60
2019-04-09T17:38:01.697Z,12.57
2019-04-09T17:40:32.026Z,12.51
2019-04-09T17:43:03.823Z,12.49
2019-04-09T17:45:33.465Z,12.50
2019-04-09T17:48:05.199Z,12.53
2019-04-09T17:50:34.608Z,12.53
2019-04-09T17:53:04.194Z,12.51
2019-04-09T17:55:34.888Z,12.49
2019-04-09T17:58:04.676Z,12.51
2019-04-09T18:00:34.788Z,12.48
2019-04-09T18:03:04.976Z,12.43
2019-04-09T18:05:34.902Z,12.47
2019-04-09T18:08:04.970Z,12.49
2019-04-09T18:10:34.992Z,12.49
2019-04-09T18:13:05.452Z,12.49
2019-04-09T18:15:35.703Z,12.49
2019-04-09T18:18:06.135Z,12.49
2019-04-09T18:20:36.146Z,12.48
2019-04-09T18:23:05.881Z,12.41
2019-04-09T18:25:35.867Z,12.43
2019-04-09T18:28:05.776Z,12.39
2019-04-09T18:30:36.099Z,12.35
2019-04-09T18:33:06.062Z,12.33
2019-04-09T18:35:35.790Z,12.33
2019-04-09T18:38:06.351Z,12.32
2019-04-09T18:40:36.691Z,12.31
2019-04-09T18:43:06.693Z,12.31
2019-04-09T18:45:37.366Z,12.30
2019-04-09T18:48:07.111Z,12.30
2019-04-09T18:50:37.173Z,12.27
2019-04-09T18:53:07.005Z,12.25
2019-04-09T18:55:37.055Z,12.25
2019-04-09T18:58:06.750Z,12.20
2019-04-09T19:00:38.286Z,12.21
2019-04-09T19:03:09.549Z,12.23
2019-04-09T19:05:40.623Z,12.16
2019-04-09T19:08:10.700Z,12.19
2019-04-09T19:10:41.324Z,12.20
2019-04-09T19:13:12.792Z,12.22
2019-04-09T19:15:42.482Z,12.24
2019-04-09T19:18:12.863Z,12.19
2019-04-09T19:20:43.743Z,12.21
2019-04-09T19:23:13.870Z,12.24
2019-04-09T19:25:44.302Z,12.23
2019-04-09T19:28:15.073Z,12.22
2019-04-09T19:30:44.931Z,12.23
2019-04-09T19:33:14.665Z,12.25
2019-04-09T19:35:44.256Z,12.30
2019-04-09T19:38:16.450Z,12.30
2019-04-09T19:40:45.237Z,12.29
2019-04-09T19:43:14.934Z,12.24
2019-04-09T19:45:45.212Z,12.25
2019-04-09T19:48:15.843Z,12.26
2019-04-09T19:50:45.570Z,12.21
2019-04-09T19:53:15.961Z,12.15
2019-04-09T19:55:46.752Z,12.14
2019-04-09T19:58:16.908Z,12.14
2019-04-09T20:00:47.964Z,12.19
2019-04-09T20:03:17.652Z,12.18
2019-04-09T20:05:47.236Z,12.22
2019-04-09T20:08:16.796Z,12.27
2019-04-09T20:10:46.621Z,12.28
2019-04-09T20:13:16.276Z,12.26
2019-04-09T20:15:46.486Z,12.24
2019-04-09T20:18:16.154Z,12.22
2019-04-09T20:20:45.900Z,12.26
2019-04-09T20:23:16.126Z,12.28
2019-04-09T20:25:46.087Z,12.30
2019-04-09T20:28:15.942Z,12.30
2019-04-09T20:30:46.152Z,12.26
2019-04-09T20:33:15.802Z,12.26
2019-04-09T20:35:48.751Z,12.27
2019-04-09T20:38:16.787Z,12.22
2019-04-09T20:40:46.338Z,12.21
2019-04-09T20:43:16.285Z,12.20
2019-04-09T20:45:46.743Z,12.21
2019-04-09T20:48:17.285Z,12.22
2019-04-09T20:50:48.177Z,12.21
2019-04-09T20:53:17.900Z,12.24
2019-04-09T20:55:48.567Z,12.26
2019-04-09T20:58:18.355Z,12.24
2019-04-09T21:01:11.075Z,12.29
2019-04-09T21:04:08.170Z,12.34
2019-04-09T21:06:37.067Z,12.38
2019-04-09T21:09:09.832Z,12.35
2019-04-09T21:11:40.251Z,12.36
2019-04-09T21:14:09.871Z,12.36
2019-04-09T21:16:40.586Z,12.39
2019-04-09T21:19:10.364Z,12.33
2019-04-09T21:21:40.103Z,12.31
2019-04-09T21:24:09.786Z,12.30
2019-04-09T21:26:40.366Z,12.29
2019-04-09T21:29:10.472Z,12.33
2019-04-09T21:31:40.139Z,12.32
2019-04-09T21:34:09.784Z,12.32
2019-04-09T21:36:39.601Z,12.29
2019-04-09T21:39:09.400Z,12.32
2019-04-09T21:41:39.217Z,12.35
2019-04-09T21:44:08.964Z,12.31
2019-04-09T21:46:39.589Z,12.35
2019-04-09T21:49:09.599Z,12.35
2019-04-09T21:51:39.826Z,12.35
2019-04-09T21:54:09.533Z,12.38
2019-04-09T21:56:39.094Z,12.36
2019-04-09T21:59:08.837Z,12.39
2019-04-09T22:01:39.635Z,12.40
2019-04-09T22:04:09.526Z,12.39
2019-04-09T22:06:39.803Z,12.41
2019-04-09T22:09:10.744Z,12.37
2019-04-09T22:11:40.361Z,12.29
2019-04-09T22:14:10.267Z,12.26
2019-04-09T22:16:39.774Z,12.25
2019-04-09T22:19:10.397Z,12.26
2019-04-09T22:21:40.791Z,12.30
2019-04-09T22:24:10.405Z,12.33
2019-04-09T22:26:40.103Z,12.30
2019-04-09T22:29:09.737Z,12.25
2019-04-09T22:31:40.110Z,12.09
2019-04-09T22:34:09.771Z,12.21
2019-04-09T22:36:41.820Z,12.19
2019-04-09T22:39:11.957Z,12.13
2019-04-09T22:41:41.531Z,12.09
2019-04-09T22:44:12.097Z,12.06
2019-04-09T22:46:42.665Z,12.05
2019-04-09T22:49:12.928Z,12.03
2019-04-09T22:51:43.351Z,11.99
2019-04-09T22:54:13.525Z,12.00
2019-04-09T22:56:43.232Z,11.97
2019-04-09T22:59:13.265Z,11.90
2019-04-09T23:02:14.222Z,11.93
2019-04-09T23:05:02.766Z,11.84
2019-04-09T23:07:51.135Z,11.86
2019-04-09T23:10:26.500Z,11.86
2019-04-09T23:12:58.467Z,11.91
2019-04-09T23:15:39.433Z,11.91
2019-04-09T23:18:09.038Z,11.93
2019-04-09T23:20:38.984Z,11.93
2019-04-09T23:23:08.962Z,11.89
2019-04-09T23:25:39.130Z,11.87
2019-04-09T23:28:08.921Z,11.89
2019-04-09T23:30:38.482Z,11.82
2019-04-09T23:33:08.137Z,11.83
2019-04-09T23:35:37.714Z,11.77
2019-04-09T23:38:08.270Z,11.77
2019-04-09T23:40:38.061Z,11.74
2019-04-09T23:43:07.802Z,11.72
2019-04-09T23:45:37.421Z,11.70
2019-04-09T23:48:08.331Z,11.68
2019-04-09T23:50:38.242Z,11.66
2019-04-09T23:53:08.597Z,11.71
2019-04-09T23:55:38.776Z,11.70
2019-04-09T23:58:09.126Z,11.72
